createdAt,value
2023-03-22T00:00:19.398Z,4.40
2023-03-22T00:02:51.356Z,4.21
2023-03-22T00:05:23.031Z,4.64
2023-03-22T00:07:54.795Z,4.73
2023-03-22T00:10:28.126Z,4.40
2023-03-22T00:13:00.713Z,4.18
2023-03-22T00:15:32.705Z,4.52
2023-03-22T00:18:04.576Z,4.41
2023-03-22T00:20:36.144Z,4.80
2023-03-22T00:23:07.907Z,4.72
2023-03-22T00:25:39.512Z,4.66
2023-03-22T00:28:12.290Z,4.73
2023-03-22T00:30:52.271Z,4.38
2023-03-22T00:33:24.802Z,4.62
2023-03-22T00:36:02.368Z,4.79
2023-03-22T00:38:42.123Z,4.82
2023-03-22T00:41:20.458Z,4.83
2023-03-22T00:43:52.193Z,5.08
2023-03-22T00:46:23.865Z,5.31
2023-03-22T00:48:56.114Z,5.07
2023-03-22T00:51:27.781Z,5.27
2023-03-22T00:53:59.405Z,5.29
2023-03-22T00:56:31.115Z,5.13
2023-03-22T00:59:10.165Z,5.06
2023-03-22T01:01:43.062Z,5.03
2023-03-22T01:04:14.638Z,4.82
2023-03-22T01:06:46.258Z,4.82
2023-03-22T01:09:17.917Z,4.83
2023-03-22T01:11:50.805Z,4.54
2023-03-22T01:14:22.989Z,4.75
2023-03-22T01:16:55.201Z,4.62
2023-03-22T01:19:26.910Z,4.55
2023-03-22T01:21:58.644Z,4.79
2023-03-22T01:24:30.678Z,4.66
2023-03-22T01:27:02.338Z,4.70
2023-03-22T01:29:34.164Z,4.72
2023-03-22T01:32:06.151Z,4.72
2023-03-22T01:34:38.004Z,4.68
2023-03-22T01:37:10.628Z,4.71
2023-03-22T01:39:49.012Z,4.52
2023-03-22T01:42:23.544Z,4.40
2023-03-22T01:45:15.462Z,4.45
2023-03-22T01:47:59.270Z,4.43
2023-03-22T01:50:31.322Z,4.49
2023-03-22T01:53:03.856Z,4.48
2023-03-22T01:55:38.178Z,4.61
2023-03-22T01:58:16.721Z,4.52
2023-03-22T02:00:54.649Z,4.34
2023-03-22T02:04:09.926Z,4.36
2023-03-22T02:06:42.889Z,4.11
2023-03-22T02:09:20.861Z,4.33
2023-03-22T02:12:07.935Z,4.15
2023-03-22T02:15:19.482Z,3.99
2023-03-22T02:18:24.948Z,4.09
2023-03-22T02:21:34.605Z,4.07
2023-03-22T02:24:41.681Z,4.13
2023-03-22T02:27:14.819Z,4.00
2023-03-22T02:30:00.269Z,4.09
2023-03-22T02:32:32.056Z,4.00
2023-03-22T02:35:36.786Z,4.04
2023-03-22T02:38:20.760Z,4.09
2023-03-22T02:41:13.947Z,4.17
2023-03-22T02:43:54.863Z,4.26
2023-03-22T02:46:43.211Z,4.16
2023-03-22T02:49:54.761Z,4.02
2023-03-22T02:52:55.712Z,3.75
2023-03-22T02:55:35.561Z,3.94
2023-03-22T02:58:24.910Z,3.92
2023-03-22T03:01:06.872Z,4.15
2023-03-22T03:03:39.842Z,4.14
2023-03-22T03:06:17.548Z,4.00
2023-03-22T03:08:51.030Z,3.85
2023-03-22T03:11:22.925Z,3.78
2023-03-22T03:13:54.593Z,3.76
2023-03-22T03:16:30.717Z,3.96
2023-03-22T03:19:06.219Z,3.73
2023-03-22T03:21:46.224Z,3.84
2023-03-22T03:24:39.968Z,3.75
2023-03-22T03:27:37.365Z,3.92
2023-03-22T03:30:20.919Z,3.67
2023-03-22T03:33:06.649Z,3.90
2023-03-22T03:35:51.486Z,3.98
2023-03-22T03:38:29.078Z,3.90
2023-03-22T03:41:06.604Z,4.16
2023-03-22T03:43:41.141Z,3.81
2023-03-22T03:46:13.134Z,4.05
2023-03-22T03:48:49.506Z,4.07
2023-03-22T03:51:21.149Z,4.06
2023-03-22T03:53:53.034Z,3.95
2023-03-22T03:56:26.745Z,3.76
2023-03-22T03:58:59.573Z,3.68
2023-03-22T04:01:31.349Z,3.64
2023-03-22T04:04:20.555Z,3.55
2023-03-22T04:06:57.609Z,3.46
2023-03-22T04:09:33.996Z,3.50
2023-03-22T04:12:15.026Z,3.51
2023-03-22T04:14:50.484Z,3.75
2023-03-22T04:17:27.688Z,3.42
2023-03-22T04:19:59.422Z,3.56
2023-03-22T04:22:31.332Z,3.66
2023-03-22T04:25:03.563Z,3.66
2023-03-22T04:27:35.805Z,3.60
2023-03-22T04:30:15.215Z,3.44
2023-03-22T04:33:06.242Z,3.60
2023-03-22T04:35:54.195Z,3.68
2023-03-22T04:38:26.153Z,3.64
2023-03-22T04:40:59.532Z,3.49
2023-03-22T04:43:45.053Z,3.31
2023-03-22T04:46:18.779Z,3.33
2023-03-22T04:49:07.819Z,3.30
2023-03-22T04:51:43.890Z,3.19
2023-03-22T04:54:38.543Z,3.56
2023-03-22T04:57:11.387Z,3.79
2023-03-22T04:59:47.887Z,3.57
2023-03-22T05:02:19.653Z,3.49
2023-03-22T05:04:54.835Z,3.46
2023-03-22T05:07:45.746Z,3.49
2023-03-22T05:10:17.521Z,3.54
2023-03-22T05:12:49.372Z,3.39
2023-03-22T05:15:30.048Z,3.18
2023-03-22T05:18:03.874Z,3.35
2023-03-22T05:20:35.594Z,3.23
2023-03-22T05:23:20.451Z,3.30
2023-03-22T05:25:56.273Z,3.55
2023-03-22T05:28:29.169Z,3.77
2023-03-22T05:31:09.355Z,3.36
2023-03-22T05:33:49.583Z,3.36
2023-03-22T05:36:24.040Z,3.14
2023-03-22T05:39:18.412Z,3.47
2023-03-22T05:41:50.266Z,3.52
2023-03-22T05:44:22.080Z,3.57
2023-03-22T05:47:03.938Z,3.53
2023-03-22T05:49:39.564Z,3.77
2023-03-22T05:52:12.013Z,3.59
2023-03-22T05:55:07.222Z,3.69
2023-03-22T05:57:40.156Z,3.73
2023-03-22T06:00:15.463Z,3.72
2023-03-22T06:03:14.643Z,3.33
2023-03-22T06:05:51.638Z,3.63
2023-03-22T06:08:26.742Z,3.44
2023-03-22T06:10:58.855Z,3.09
2023-03-22T06:13:31.651Z,3.15
2023-03-22T06:16:04.872Z,3.06
2023-03-22T06:18:36.958Z,2.99
2023-03-22T06:21:13.789Z,3.10
2023-03-22T06:23:46.441Z,2.92
2023-03-22T06:26:18.359Z,2.90
2023-03-22T06:28:51.010Z,3.13
2023-03-22T06:31:23.641Z,2.96
2023-03-22T06:34:07.002Z,2.79
2023-03-22T06:36:43.548Z,2.94
2023-03-22T06:39:18.810Z,3.25
2023-03-22T06:41:51.541Z,3.02
2023-03-22T06:44:23.368Z,2.91
2023-03-22T06:46:55.096Z,2.92
2023-03-22T06:49:38.797Z,3.08
2023-03-22T06:52:10.439Z,3.07
2023-03-22T06:54:42.247Z,2.96
2023-03-22T06:57:14.927Z,3.28
2023-03-22T06:59:46.520Z,3.03
2023-03-22T07:02:18.131Z,2.95
2023-03-22T07:05:09.682Z,3.09
2023-03-22T07:07:41.399Z,3.02
2023-03-22T07:10:13.330Z,2.92
2023-03-22T07:12:44.945Z,2.96
2023-03-22T07:15:20.093Z,2.97
2023-03-22T07:18:04.033Z,2.96
2023-03-22T07:20:38.387Z,2.93
2023-03-22T07:23:10.382Z,2.91
2023-03-22T07:25:49.980Z,2.96
2023-03-22T07:28:27.921Z,2.86
2023-03-22T07:31:04.747Z,2.71
2023-03-22T07:33:46.810Z,2.95
2023-03-22T07:36:18.602Z,2.57
2023-03-22T07:38:51.504Z,2.53
2023-03-22T07:41:29.472Z,2.65
2023-03-22T07:44:21.913Z,2.48
2023-03-22T07:47:07.901Z,2.56
2023-03-22T07:49:54.024Z,3.07
2023-03-22T07:52:30.969Z,2.81
2023-03-22T07:55:04.802Z,2.75
2023-03-22T07:57:37.380Z,2.59
2023-03-22T08:00:10.132Z,2.59
2023-03-22T08:02:50.652Z,2.58
2023-03-22T08:05:43.366Z,2.68
2023-03-22T08:08:18.910Z,3.09
2023-03-22T08:10:52.109Z,2.57
2023-03-22T08:13:23.995Z,2.66
2023-03-22T08:15:56.173Z,2.48
2023-03-22T08:18:29.060Z,2.54
2023-03-22T08:21:01.095Z,2.48
2023-03-22T08:23:41.901Z,3.53
2023-03-22T08:26:37.362Z,3.70
2023-03-22T08:29:18.600Z,3.98
2023-03-22T08:31:52.441Z,3.99
2023-03-22T08:34:24.158Z,4.71
2023-03-22T08:36:56.909Z,5.85
2023-03-22T08:39:28.696Z,5.68
2023-03-22T08:42:18.932Z,4.64
2023-03-22T08:44:52.628Z,4.13
2023-03-22T08:47:26.562Z,4.03
2023-03-22T08:50:04.783Z,4.01
2023-03-22T08:52:45.456Z,4.02
2023-03-22T08:55:38.192Z,3.86
2023-03-22T08:58:16.754Z,3.85
2023-03-22T09:01:26.371Z,4.01
2023-03-22T09:04:04.675Z,3.58
2023-03-22T09:06:36.414Z,3.57
2023-03-22T09:09:08.073Z,3.67
2023-03-22T09:11:40.969Z,3.35
2023-03-22T09:14:12.667Z,3.29
2023-03-22T09:16:44.295Z,3.35
2023-03-22T09:19:15.997Z,3.11
2023-03-22T09:21:47.605Z,3.23
2023-03-22T09:24:24.292Z,3.16
2023-03-22T09:26:58.836Z,2.96
2023-03-22T09:32:23.883Z,2.98
2023-03-22T09:35:02.709Z,3.07
2023-03-22T09:37:43.555Z,3.45
2023-03-22T09:40:16.706Z,3.59
2023-03-22T09:42:54.508Z,3.51
2023-03-22T09:45:41.329Z,2.67
2023-03-22T09:48:31.275Z,2.86
2023-03-22T09:51:05.960Z,2.66
2023-03-22T09:53:37.604Z,2.92
2023-03-22T09:56:26.011Z,3.20
2023-03-22T09:59:08.674Z,3.02
2023-03-22T10:01:46.094Z,3.28
2023-03-22T10:04:47.320Z,2.98
2023-03-22T10:07:40.233Z,3.26
2023-03-22T10:10:20.011Z,3.19
2023-03-22T10:13:12.018Z,2.79
2023-03-22T10:15:47.985Z,2.96
2023-03-22T10:18:36.647Z,3.03
2023-03-22T10:21:11.487Z,3.04
2023-03-22T10:24:05.076Z,2.87
2023-03-22T10:26:40.491Z,2.55
2023-03-22T10:29:22.072Z,2.56
2023-03-22T10:31:54.636Z,2.65
2023-03-22T10:34:29.577Z,2.56
2023-03-22T10:37:06.060Z,3.07
2023-03-22T10:39:46.078Z,2.96
2023-03-22T10:42:28.089Z,3.08
2023-03-22T10:45:08.481Z,2.82
2023-03-22T10:47:52.830Z,3.30
2023-03-22T10:50:30.477Z,3.26
2023-03-22T10:53:26.930Z,3.19
2023-03-22T10:55:59.066Z,3.23
2023-03-22T10:58:33.387Z,3.28
2023-03-22T11:01:11.449Z,3.44
2023-03-22T11:03:44.552Z,3.42
2023-03-22T11:06:28.869Z,3.41
2023-03-22T11:09:10.414Z,3.39
2023-03-22T11:11:54.325Z,3.07
2023-03-22T11:14:42.679Z,3.24
2023-03-22T11:17:22.515Z,3.70
2023-03-22T11:19:54.087Z,3.18
2023-03-22T11:22:39.987Z,3.45
2023-03-22T11:25:22.573Z,3.81
2023-03-22T11:28:05.264Z,3.23
2023-03-22T11:30:37.249Z,3.35
2023-03-22T11:33:08.874Z,3.66
2023-03-22T11:35:45.827Z,3.54
2023-03-22T11:38:41.216Z,3.59
2023-03-22T11:41:32.044Z,3.50
2023-03-22T11:44:14.133Z,2.65
2023-03-22T11:46:56.030Z,3.05
2023-03-22T11:49:47.563Z,3.03
2023-03-22T11:52:24.945Z,3.05
2023-03-22T11:55:00.789Z,2.72
2023-03-22T11:57:36.143Z,2.59
2023-03-22T12:00:32.895Z,2.66
2023-03-22T12:03:19.896Z,2.15
2023-03-22T12:05:53.254Z,2.61
2023-03-22T12:08:49.655Z,2.27
2023-03-22T12:11:31.402Z,2.26
2023-03-22T12:14:25.890Z,2.42
2023-03-22T12:17:05.134Z,2.41
2023-03-22T12:19:50.287Z,2.47
2023-03-22T12:22:33.581Z,2.56
2023-03-22T12:25:12.557Z,2.33
2023-03-22T12:27:51.041Z,2.46
2023-03-22T12:30:31.731Z,2.60
2023-03-22T12:33:27.080Z,2.57
2023-03-22T12:36:04.129Z,2.61
2023-03-22T12:38:44.769Z,2.72
2023-03-22T12:41:24.975Z,2.66
2023-03-22T12:44:38.142Z,2.58
2023-03-22T12:47:12.914Z,2.51
2023-03-22T12:49:50.966Z,2.67
2023-03-22T12:52:37.618Z,2.91
2023-03-22T12:55:24.948Z,2.79
2023-03-22T12:57:57.538Z,2.29
2023-03-22T13:00:36.370Z,2.54
2023-03-22T13:03:17.004Z,2.70
2023-03-22T13:05:59.335Z,2.78
2023-03-22T13:09:10.207Z,2.71
2023-03-22T13:11:47.163Z,2.57
2023-03-22T13:14:49.898Z,3.04
2023-03-22T13:17:24.527Z,2.68
2023-03-22T13:20:21.085Z,2.40
2023-03-22T13:22:52.663Z,2.60
2023-03-22T13:25:33.637Z,2.47
2023-03-22T13:28:27.041Z,2.78
2023-03-22T13:30:59.080Z,2.74
2023-03-22T13:33:36.702Z,2.43
2023-03-22T13:36:24.287Z,2.46
2023-03-22T13:38:59.862Z,2.45
2023-03-22T13:41:34.624Z,2.99
2023-03-22T13:44:35.702Z,2.98
2023-03-22T13:47:33.761Z,3.15
2023-03-22T13:50:27.793Z,3.14
2023-03-22T13:53:07.702Z,3.22
2023-03-22T13:55:51.148Z,3.55
2023-03-22T13:58:50.572Z,3.16
2023-03-22T14:01:26.727Z,3.24
2023-03-22T14:04:02.080Z,3.10
2023-03-22T14:06:49.401Z,3.25
2023-03-22T14:09:29.771Z,2.96
2023-03-22T14:12:19.110Z,3.03
2023-03-22T14:14:56.913Z,3.50
2023-03-22T14:17:47.054Z,3.14
2023-03-22T14:20:22.659Z,3.60
